createdAt,value
2023-08-31T00:01:21.525Z,16.48
2023-08-31T00:06:26.010Z,16.66
2023-08-31T00:11:29.007Z,16.84
2023-08-31T00:16:32.241Z,16.87
2023-08-31T00:21:36.647Z,16.93
2023-08-31T00:26:41.692Z,16.93
2023-08-31T00:31:45.895Z,16.36
2023-08-31T00:36:50.576Z,16.62
2023-08-31T00:41:55.128Z,16.46
2023-08-31T00:46:58.107Z,16.43
2023-08-31T00:52:02.547Z,16.45
2023-08-31T00:57:06.481Z,16.11
2023-08-31T01:02:14.597Z,16.21
2023-08-31T01:07:33.799Z,15.92
2023-08-31T01:12:41.860Z,16.13
2023-08-31T01:17:47.089Z,16.19
2023-08-31T01:22:58.453Z,16.10
2023-08-31T01:28:03.331Z,15.96
2023-08-31T01:33:06.880Z,16.06
2023-08-31T01:38:11.110Z,16.05
2023-08-31T01:43:16.333Z,16.25
2023-08-31T01:48:19.370Z,16.02
2023-08-31T01:53:22.240Z,16.07
2023-08-31T01:58:26.670Z,16.06
2023-08-31T02:03:29.770Z,15.94
2023-08-31T02:08:32.791Z,15.74
2023-08-31T02:13:37.192Z,15.91
2023-08-31T02:18:40.179Z,15.91
2023-08-31T02:23:43.385Z,15.99
2023-08-31T02:28:47.811Z,16.05
2023-08-31T02:33:51.042Z,15.93
2023-08-31T02:38:54.353Z,16.02
2023-08-31T02:43:58.793Z,16.01
2023-08-31T02:49:02.513Z,15.74
2023-08-31T02:54:05.716Z,15.67
2023-08-31T02:59:10.171Z,15.47
2023-08-31T03:04:13.193Z,15.28
2023-08-31T03:09:16.149Z,15.13
2023-08-31T03:14:21.534Z,15.10
2023-08-31T03:19:24.542Z,14.98
2023-08-31T03:24:27.738Z,15.15
2023-08-31T03:29:35.418Z,15.22
2023-08-31T03:34:38.435Z,15.28
2023-08-31T03:39:42.591Z,15.32
2023-08-31T03:44:46.994Z,15.35
2023-08-31T03:49:53.952Z,15.34
2023-08-31T03:54:57.278Z,15.33
2023-08-31T04:00:01.861Z,15.56
2023-08-31T04:05:06.490Z,15.33
2023-08-31T04:10:10.397Z,15.41
2023-08-31T04:15:15.050Z,15.53
2023-08-31T04:20:18.242Z,15.33
2023-08-31T04:25:21.249Z,15.41
2023-08-31T04:30:25.661Z,15.45
2023-08-31T04:35:28.798Z,15.38
2023-08-31T04:40:32.232Z,15.34
2023-08-31T04:45:36.712Z,15.44
2023-08-31T04:50:39.721Z,15.51
2023-08-31T04:55:42.792Z,15.56
2023-08-31T05:00:48.289Z,15.54
2023-08-31T05:05:51.382Z,15.46
2023-08-31T05:10:54.517Z,15.57
2023-08-31T05:15:58.792Z,15.77
2023-08-31T05:21:01.890Z,15.69
2023-08-31T05:26:04.923Z,15.77
2023-08-31T05:31:09.347Z,15.71
2023-08-31T05:36:12.447Z,15.54
2023-08-31T05:41:15.471Z,15.66
2023-08-31T05:46:20.632Z,15.78
2023-08-31T05:51:23.733Z,15.56
2023-08-31T05:56:26.747Z,15.68
2023-08-31T06:01:31.242Z,15.57
2023-08-31T06:06:34.892Z,15.66
2023-08-31T06:11:37.972Z,15.77
2023-08-31T06:16:42.436Z,15.73
2023-08-31T06:21:45.506Z,15.58
2023-08-31T06:26:48.680Z,15.68
2023-08-31T06:31:53.398Z,15.79
2023-08-31T06:36:59.230Z,15.99
2023-08-31T06:42:02.457Z,16.00
2023-08-31T06:47:08.570Z,16.24
2023-08-31T06:52:21.686Z,16.19
2023-08-31T06:57:32.779Z,16.11
2023-08-31T07:02:39.280Z,16.29
2023-08-31T07:07:42.567Z,16.47
2023-08-31T07:12:45.567Z,16.59
2023-08-31T07:17:49.925Z,16.74
2023-08-31T07:22:52.984Z,16.74
2023-08-31T07:27:56.457Z,16.69
2023-08-31T07:33:11.091Z,16.82
2023-08-31T07:38:20.285Z,16.96
2023-08-31T07:43:23.345Z,17.09
2023-08-31T07:48:27.903Z,17.47
2023-08-31T07:53:31.068Z,17.69
2023-08-31T07:58:34.332Z,17.92
2023-08-31T08:03:39.671Z,17.82
2023-08-31T08:08:43.463Z,17.92
2023-08-31T08:13:46.543Z,18.03
2023-08-31T08:18:54.334Z,18.01
2023-08-31T08:23:57.558Z,18.16
2023-08-31T08:29:00.959Z,18.11
2023-08-31T08:34:05.891Z,18.52
2023-08-31T08:39:09.076Z,18.25
2023-08-31T08:44:12.524Z,18.08
2023-08-31T08:49:17.398Z,18.15
2023-08-31T08:54:21.142Z,17.84
2023-08-31T08:59:24.778Z,17.90
2023-08-31T09:04:31.383Z,18.43
2023-08-31T09:09:34.637Z,18.61
2023-08-31T09:14:37.950Z,18.68
2023-08-31T09:19:42.527Z,18.35
2023-08-31T09:24:46.096Z,17.76
2023-08-31T09:29:49.385Z,17.39
2023-08-31T09:35:02.791Z,17.14
2023-08-31T09:40:10.554Z,15.35
2023-08-31T09:45:13.616Z,14.80
2023-08-31T09:50:18.437Z,15.30
2023-08-31T09:55:22.121Z,15.63
2023-08-31T10:00:25.669Z,16.08
2023-08-31T10:05:31.073Z,16.19
2023-08-31T10:10:46.395Z,16.69
2023-08-31T10:15:51.230Z,16.84
2023-08-31T10:20:55.712Z,17.27
2023-08-31T10:26:02.792Z,17.62
2023-08-31T10:31:07.277Z,18.24
2023-08-31T10:36:16.467Z,18.60
2023-08-31T10:41:22.160Z,18.47
2023-08-31T10:46:29.965Z,19.08
2023-08-31T10:51:35.171Z,19.25
2023-08-31T10:56:54.374Z,18.67
2023-08-31T11:01:58.128Z,18.74
2023-08-31T11:07:22.076Z,19.56
2023-08-31T11:12:25.978Z,19.89
2023-08-31T11:17:30.761Z,20.46
2023-08-31T11:22:35.598Z,20.25
2023-08-31T11:27:39.658Z,19.65
2023-08-31T11:32:47.581Z,19.93
2023-08-31T11:37:54.260Z,20.86
2023-08-31T11:42:57.657Z,24.23
2023-08-31T11:48:01.178Z,29.13
2023-08-31T11:53:06.262Z,32.17
2023-08-31T11:58:10.697Z,30.31
2023-08-31T12:03:14.438Z,29.30
2023-08-31T12:08:19.485Z,35.33
2023-08-31T12:13:23.214Z,35.72
2023-08-31T12:18:26.450Z,36.23
2023-08-31T12:23:31.065Z,39.93
2023-08-31T12:28:34.154Z,40.27
2023-08-31T12:33:37.208Z,30.90
2023-08-31T12:38:41.577Z,26.23
2023-08-31T12:43:44.651Z,26.42
2023-08-31T12:48:49.568Z,29.63
2023-08-31T12:53:53.953Z,30.21
2023-08-31T12:58:57.086Z,35.86
2023-08-31T13:04:00.214Z,37.12
2023-08-31T13:09:06.990Z,37.70
2023-08-31T13:14:09.959Z,33.49
2023-08-31T13:19:12.951Z,35.62
2023-08-31T13:24:18.020Z,28.41
2023-08-31T13:29:21.620Z,30.54
2023-08-31T13:34:25.017Z,29.67
2023-08-31T13:39:29.704Z,35.68
2023-08-31T13:44:33.155Z,35.31
2023-08-31T13:49:38.850Z,32.35
2023-08-31T13:54:44.320Z,32.24
2023-08-31T13:59:48.493Z,34.22
2023-08-31T14:04:52.670Z,32.74
2023-08-31T14:09:57.867Z,30.59
2023-08-31T14:15:03.235Z,36.18
2023-08-31T14:20:12.102Z,38.15
2023-08-31T14:25:20.862Z,38.27
2023-08-31T14:30:28.649Z,37.38
2023-08-31T14:35:34.956Z,36.09
2023-08-31T14:40:45.115Z,37.33
2023-08-31T14:45:51.505Z,32.28
2023-08-31T14:50:56.731Z,34.72
2023-08-31T14:56:01.877Z,39.28
2023-08-31T15:01:10.162Z,38.77
2023-08-31T15:06:14.371Z,39.41
2023-08-31T15:11:18.902Z,33.77
2023-08-31T15:16:21.981Z,36.38
2023-08-31T15:21:25.684Z,38.95
2023-08-31T15:26:32.055Z,34.88
2023-08-31T15:31:35.416Z,33.09
2023-08-31T15:36:38.642Z,31.69
2023-08-31T15:41:44.131Z,29.37
2023-08-31T15:46:51.547Z,28.62
2023-08-31T15:51:57.107Z,28.75
2023-08-31T15:57:02.062Z,30.06
2023-08-31T16:02:07.148Z,29.63
2023-08-31T16:07:13.501Z,29.27
2023-08-31T16:12:19.218Z,28.42
2023-08-31T16:17:22.526Z,26.79
2023-08-31T16:22:25.604Z,25.56
2023-08-31T16:27:30.596Z,25.35
2023-08-31T16:32:34.361Z,25.69
2023-08-31T16:37:37.627Z,24.85
2023-08-31T16:42:43.025Z,24.27
2023-08-31T16:47:46.679Z,23.50
2023-08-31T16:52:50.011Z,23.15
2023-08-31T16:57:54.908Z,22.82
2023-08-31T17:02:58.352Z,22.62
2023-08-31T17:08:01.453Z,22.28
2023-08-31T17:13:06.658Z,22.08
2023-08-31T17:18:10.696Z,21.81
2023-08-31T17:23:16.356Z,21.68
2023-08-31T17:28:21.212Z,21.61
2023-08-31T17:33:25.556Z,21.43
2023-08-31T17:38:29.123Z,21.26
2023-08-31T17:43:33.502Z,21.17
2023-08-31T17:48:37.299Z,21.03
2023-08-31T17:53:42.076Z,20.95
2023-08-31T17:58:47.053Z,20.99
2023-08-31T18:03:50.935Z,20.68
2023-08-31T18:08:54.255Z,20.54
2023-08-31T18:13:58.803Z,20.20
2023-08-31T18:19:04.527Z,19.74
2023-08-31T18:24:09.248Z,19.67
2023-08-31T18:29:14.344Z,19.53
2023-08-31T18:34:17.449Z,19.28
2023-08-31T18:39:21.169Z,19.11
2023-08-31T18:44:26.356Z,19.02
2023-08-31T18:49:30.101Z,19.03
2023-08-31T18:54:34.674Z,19.02
2023-08-31T18:59:47.577Z,19.02
2023-08-31T19:04:53.108Z,18.81
2023-08-31T19:10:07.378Z,18.81
2023-08-31T19:15:13.352Z,18.90
2023-08-31T19:20:17.268Z,18.72
2023-08-31T19:25:21.201Z,16.68
2023-08-31T19:30:25.886Z,16.44
2023-08-31T19:35:56.731Z,16.26
2023-08-31T19:40:53.004Z,16.40
2023-08-31T19:45:57.600Z,15.78
2023-08-31T19:51:06.723Z,15.63
2023-08-31T19:56:10.283Z,15.20
2023-08-31T20:01:15.250Z,15.77
2023-08-31T20:06:18.336Z,15.84
2023-08-31T20:11:22.958Z,16.03
2023-08-31T20:16:27.656Z,16.28
2023-08-31T20:21:31.410Z,16.22
2023-08-31T20:26:35.009Z,16.14
2023-08-31T20:31:39.779Z,16.31
2023-08-31T20:36:43.008Z,16.35
2023-08-31T20:41:46.055Z,16.32
2023-08-31T20:46:50.252Z,16.48
2023-08-31T20:51:53.153Z,16.42
2023-08-31T20:56:56.311Z,16.52
2023-08-31T21:02:00.723Z,16.40
2023-08-31T21:07:03.728Z,16.35
2023-08-31T21:12:07.592Z,16.38
2023-08-31T21:17:12.247Z,16.29
2023-08-31T21:22:15.168Z,16.16
2023-08-31T21:27:17.946Z,16.19
2023-08-31T21:32:22.281Z,16.27
2023-08-31T21:37:25.252Z,16.18
2023-08-31T21:42:28.064Z,16.20
2023-08-31T21:47:32.601Z,16.30
2023-08-31T21:52:35.444Z,16.39
2023-08-31T21:57:39.189Z,16.48
2023-08-31T22:02:44.148Z,16.48
2023-08-31T22:07:48.836Z,16.53
2023-08-31T22:12:53.249Z,16.48
2023-08-31T22:17:58.998Z,16.61
2023-08-31T22:23:02.944Z,16.51
2023-08-31T22:28:07.026Z,16.43
2023-08-31T22:33:11.673Z,16.44
2023-08-31T22:38:15.295Z,16.30
2023-08-31T22:43:18.360Z,16.41
2023-08-31T22:48:22.704Z,16.41
2023-08-31T22:53:25.464Z,16.25
2023-08-31T22:58:29.345Z,16.33
2023-08-31T23:03:33.859Z,16.35
2023-08-31T23:08:37.027Z,16.32
2023-08-31T23:13:40.598Z,16.21
2023-08-31T23:18:45.112Z,16.26
2023-08-31T23:23:48.136Z,16.29
2023-08-31T23:28:51.108Z,16.37
2023-08-31T23:33:55.630Z,16.40
2023-08-31T23:38:58.628Z,16.34
2023-08-31T23:44:01.510Z,16.36
2023-08-31T23:49:05.795Z,16.33
2023-08-31T23:54:08.899Z,16.27
2023-08-31T23:59:11.772Z,16.20
